createdAt,value
2022-11-13T00:01:27.452Z,4.10
2022-11-13T00:03:58.412Z,3.85
2022-11-13T00:06:28.096Z,3.60
2022-11-13T00:08:56.435Z,3.75
2022-11-13T00:11:26.050Z,3.88
2022-11-13T00:13:56.214Z,3.88
2022-11-13T00:16:26.825Z,3.55
2022-11-13T00:18:54.306Z,3.65
2022-11-13T00:21:25.176Z,3.88
2022-11-13T00:23:57.167Z,3.67
2022-11-13T00:26:29.969Z,3.88
2022-11-13T00:29:02.212Z,4.13
2022-11-13T00:31:29.581Z,4.22
2022-11-13T00:34:19.672Z,4.40
2022-11-13T00:36:49.247Z,3.75
2022-11-13T00:39:18.771Z,4.32
2022-11-13T00:41:52.484Z,4.00
2022-11-13T00:44:23.057Z,4.10
2022-11-13T00:46:52.145Z,3.70
2022-11-13T00:49:25.959Z,4.10
2022-11-13T00:51:57.100Z,4.25
2022-11-13T00:54:24.343Z,4.05
2022-11-13T00:56:57.836Z,4.07
2022-11-13T00:59:26.536Z,3.60
2022-11-13T01:01:54.976Z,3.80
2022-11-13T01:04:21.942Z,4.22
2022-11-13T01:06:50.152Z,4.15
2022-11-13T01:09:23.742Z,4.10
2022-11-13T01:11:55.972Z,4.80
2022-11-13T01:14:24.194Z,4.30
2022-11-13T01:16:51.928Z,4.13
2022-11-13T01:19:20.628Z,3.97
2022-11-13T01:21:49.068Z,4.00
2022-11-13T01:24:18.844Z,4.25
2022-11-13T01:26:48.809Z,3.75
2022-11-13T01:29:16.069Z,4.47
2022-11-13T01:31:45.549Z,4.00
2022-11-13T01:34:15.172Z,4.28
2022-11-13T01:36:44.549Z,4.15
2022-11-13T01:39:13.576Z,4.28
2022-11-13T01:41:42.089Z,4.25
2022-11-13T01:44:22.264Z,3.85
2022-11-13T01:46:54.520Z,4.82
2022-11-13T01:49:29.311Z,4.50
2022-11-13T01:52:03.997Z,4.38
2022-11-13T01:54:42.460Z,4.28
2022-11-13T01:57:14.747Z,4.28
2022-11-13T01:59:47.621Z,3.92
2022-11-13T02:02:15.553Z,4.13
2022-11-13T02:04:47.469Z,3.75
2022-11-13T02:07:21.849Z,4.47
2022-11-13T02:09:54.081Z,3.72
2022-11-13T02:12:37.885Z,3.85
2022-11-13T02:15:08.726Z,3.97
2022-11-13T02:17:57.122Z,4.22
2022-11-13T02:20:39.475Z,4.22
2022-11-13T02:23:25.268Z,4.00
2022-11-13T02:25:55.359Z,4.07
2022-11-13T02:28:26.159Z,4.13
2022-11-13T02:30:59.719Z,4.18
2022-11-13T02:33:32.756Z,4.20
2022-11-13T02:36:01.692Z,4.43
2022-11-13T02:38:30.097Z,3.90
2022-11-13T02:40:57.887Z,4.28
2022-11-13T02:43:28.108Z,4.47
2022-11-13T02:45:58.797Z,4.47
2022-11-13T02:48:26.926Z,3.72
2022-11-13T02:50:54.669Z,3.95
2022-11-13T02:53:27.732Z,4.28
2022-11-13T02:55:58.888Z,4.07
2022-11-13T02:58:27.433Z,4.28
2022-11-13T03:00:56.247Z,4.07
2022-11-13T03:03:56.102Z,3.90
2022-11-13T03:06:17.918Z,4.07
2022-11-13T03:08:47.548Z,4.15
2022-11-13T03:11:16.340Z,4.13
2022-11-13T03:13:46.691Z,4.10
2022-11-13T03:16:19.456Z,4.40
2022-11-13T03:18:51.260Z,4.25
2022-11-13T03:21:19.575Z,3.92
2022-11-13T03:23:50.086Z,4.63
2022-11-13T03:26:21.359Z,4.07
2022-11-13T03:28:49.288Z,3.80
2022-11-13T03:31:19.564Z,3.85
2022-11-13T03:33:48.601Z,3.92
2022-11-13T03:36:20.055Z,4.10
2022-11-13T03:38:47.909Z,4.15
2022-11-13T03:41:17.514Z,3.95
2022-11-13T03:43:47.361Z,4.40
2022-11-13T03:46:15.276Z,3.92
2022-11-13T03:48:43.885Z,3.97
2022-11-13T03:51:13.327Z,4.20
2022-11-13T03:53:40.219Z,4.05
2022-11-13T03:56:09.512Z,4.22
2022-11-13T03:58:40.277Z,4.05
2022-11-13T04:01:09.566Z,4.30
2022-11-13T04:03:40.588Z,4.10
2022-11-13T04:06:11.540Z,3.80
2022-11-13T04:08:40.731Z,4.03
2022-11-13T04:11:12.218Z,4.30
2022-11-13T04:13:39.915Z,4.25
2022-11-13T04:16:10.605Z,4.13
2022-11-13T04:18:39.440Z,3.85
2022-11-13T04:21:11.812Z,4.40
2022-11-13T04:23:40.868Z,4.10
2022-11-13T04:26:09.211Z,3.88
2022-11-13T04:28:36.899Z,4.13
2022-11-13T04:31:08.051Z,3.90
2022-11-13T04:33:37.597Z,3.97
2022-11-13T04:36:07.065Z,4.22
2022-11-13T04:38:35.328Z,3.90
2022-11-13T04:41:21.068Z,3.92
2022-11-13T04:43:50.444Z,3.80
2022-11-13T04:46:21.006Z,3.72
2022-11-13T04:48:50.392Z,3.80
2022-11-13T04:51:22.105Z,3.83
2022-11-13T04:53:51.736Z,4.07
2022-11-13T04:56:20.307Z,3.70
2022-11-13T04:58:49.626Z,4.65
2022-11-13T05:01:16.851Z,3.88
2022-11-13T05:03:47.175Z,4.07
2022-11-13T05:06:15.577Z,3.78
2022-11-13T05:08:46.879Z,4.00
2022-11-13T05:11:14.687Z,4.00
2022-11-13T05:13:44.048Z,4.03
2022-11-13T05:16:16.265Z,3.95
2022-11-13T05:18:46.381Z,4.00
2022-11-13T05:21:14.414Z,4.07
2022-11-13T05:23:42.344Z,4.10
2022-11-13T05:26:14.249Z,4.45
2022-11-13T05:28:41.110Z,4.05
2022-11-13T05:31:18.373Z,4.10
2022-11-13T05:33:45.761Z,4.07
2022-11-13T05:36:17.653Z,3.65
2022-11-13T05:38:46.133Z,3.55
2022-11-13T05:41:24.420Z,3.78
2022-11-13T05:43:59.410Z,4.07
2022-11-13T05:46:28.803Z,4.07
2022-11-13T05:49:01.396Z,3.88
2022-11-13T05:51:35.191Z,3.55
2022-11-13T05:54:05.308Z,4.25
2022-11-13T05:56:38.084Z,3.58
2022-11-13T05:59:06.110Z,4.05
2022-11-13T06:01:37.976Z,4.20
2022-11-13T06:04:07.737Z,3.90
2022-11-13T06:06:38.854Z,3.78
2022-11-13T06:09:07.729Z,3.83
2022-11-13T06:11:36.588Z,3.83
2022-11-13T06:14:05.156Z,3.90
2022-11-13T06:16:39.392Z,3.65
2022-11-13T06:19:10.731Z,3.80
2022-11-13T06:21:42.415Z,3.33
2022-11-13T06:24:13.884Z,3.42
2022-11-13T06:26:45.095Z,3.70
2022-11-13T06:29:17.156Z,3.28
2022-11-13T06:31:48.609Z,3.75
2022-11-13T06:34:17.171Z,3.28
2022-11-13T06:36:44.012Z,3.80
2022-11-13T06:39:13.734Z,3.83
2022-11-13T06:41:46.057Z,3.75
2022-11-13T06:44:15.926Z,3.20
2022-11-13T06:46:43.259Z,3.65
2022-11-13T06:49:11.401Z,3.60
2022-11-13T06:51:39.962Z,3.38
2022-11-13T06:54:10.586Z,3.70
2022-11-13T06:56:46.372Z,3.10
2022-11-13T06:59:15.300Z,3.67
2022-11-13T07:01:43.953Z,3.63
2022-11-13T07:04:15.666Z,3.58
2022-11-13T07:06:42.405Z,3.45
2022-11-13T07:09:11.189Z,3.33
2022-11-13T07:11:42.702Z,3.40
2022-11-13T07:14:13.927Z,3.47
2022-11-13T07:17:07.434Z,3.33
2022-11-13T07:19:30.298Z,3.58
2022-11-13T07:21:56.925Z,3.50
2022-11-13T07:24:28.561Z,3.38
2022-11-13T07:26:57.735Z,3.25
2022-11-13T07:29:25.874Z,3.22
2022-11-13T07:31:54.096Z,3.30
2022-11-13T07:34:23.951Z,3.20
2022-11-13T07:36:51.750Z,3.17
2022-11-13T07:39:20.264Z,2.92
2022-11-13T07:41:49.299Z,2.88
2022-11-13T07:44:39.993Z,3.20
2022-11-13T07:47:05.009Z,3.40
2022-11-13T07:49:33.281Z,3.30
2022-11-13T07:52:03.129Z,3.15
2022-11-13T07:54:31.322Z,3.40
2022-11-13T07:56:57.824Z,2.97
2022-11-13T07:59:26.807Z,3.30
2022-11-13T08:01:56.595Z,3.17
2022-11-13T08:04:23.885Z,2.92
2022-11-13T08:06:52.336Z,3.08
2022-11-13T08:09:23.216Z,3.20
2022-11-13T08:11:51.102Z,3.15
2022-11-13T08:14:20.941Z,3.40
2022-11-13T08:16:50.498Z,3.35
2022-11-13T08:19:19.068Z,3.00
2022-11-13T08:21:47.496Z,3.13
2022-11-13T08:24:16.360Z,3.00
2022-11-13T08:26:43.761Z,3.20
2022-11-13T08:29:13.498Z,3.08
2022-11-13T08:31:41.660Z,2.95
2022-11-13T08:34:10.626Z,2.95
2022-11-13T08:36:41.292Z,3.00
2022-11-13T08:39:13.270Z,2.85
2022-11-13T08:41:43.589Z,3.05
2022-11-13T08:44:15.812Z,2.90
2022-11-13T08:46:45.410Z,2.80
2022-11-13T08:49:13.013Z,3.25
2022-11-13T08:51:42.334Z,3.40
2022-11-13T08:54:14.528Z,2.80
2022-11-13T08:56:42.729Z,2.80
2022-11-13T08:59:10.760Z,3.28
2022-11-13T09:01:41.135Z,2.80
2022-11-13T09:04:09.761Z,2.53
2022-11-13T09:06:38.234Z,2.88
2022-11-13T09:09:08.930Z,3.00
2022-11-13T09:11:40.010Z,3.15
2022-11-13T09:14:12.180Z,2.85
2022-11-13T09:16:44.001Z,2.72
2022-11-13T09:19:15.509Z,2.75
2022-11-13T09:21:45.065Z,2.95
2022-11-13T09:24:11.883Z,2.70
2022-11-13T09:26:43.046Z,2.80
2022-11-13T09:29:12.096Z,2.80
2022-11-13T09:31:42.608Z,2.75
2022-11-13T09:34:11.366Z,2.70
2022-11-13T09:36:41.868Z,2.78
2022-11-13T09:39:11.852Z,3.20
2022-11-13T09:41:49.301Z,3.10
2022-11-13T09:44:53.426Z,2.60
2022-11-13T09:47:31.674Z,2.78
2022-11-13T09:50:10.946Z,2.78
2022-11-13T09:52:43.149Z,2.85
2022-11-13T09:55:18.026Z,2.65
2022-11-13T09:58:18.375Z,2.80
2022-11-13T10:00:47.509Z,2.67
2022-11-13T10:04:03.397Z,3.03
2022-11-13T10:06:45.210Z,3.63
2022-11-13T10:09:28.460Z,2.88
2022-11-13T10:12:06.752Z,2.80
2022-11-13T10:14:48.383Z,2.75
2022-11-13T10:17:24.210Z,2.83
2022-11-13T10:20:00.351Z,2.78
2022-11-13T10:22:33.240Z,2.75
2022-11-13T10:25:25.130Z,2.75
2022-11-13T10:28:43.139Z,2.58
2022-11-13T10:30:59.470Z,2.60
2022-11-13T10:33:30.890Z,2.63
2022-11-13T10:36:23.832Z,3.08
2022-11-13T10:39:02.661Z,2.60
2022-11-13T10:41:31.114Z,2.65
2022-11-13T10:44:22.285Z,2.55
2022-11-13T10:46:52.804Z,2.60
2022-11-13T10:49:25.592Z,2.60
2022-11-13T10:52:08.376Z,2.85
2022-11-13T10:54:43.010Z,2.67
2022-11-13T10:57:30.405Z,2.53
2022-11-13T10:59:59.234Z,2.25
2022-11-13T11:02:33.394Z,2.42
2022-11-13T11:05:28.086Z,2.70
2022-11-13T11:07:59.262Z,2.45
2022-11-13T11:10:57.199Z,2.63
2022-11-13T11:13:28.152Z,2.55
2022-11-13T11:16:01.529Z,2.38
2022-11-13T11:18:46.083Z,2.58
2022-11-13T11:21:22.103Z,2.42
2022-11-13T11:24:06.928Z,2.50
2022-11-13T11:26:55.471Z,2.78
2022-11-13T11:29:34.382Z,2.75
2022-11-13T11:32:31.350Z,4.05
2022-11-13T11:35:15.511Z,2.65
2022-11-13T11:38:00.728Z,2.20
2022-11-13T11:40:38.453Z,2.65
2022-11-13T11:43:28.810Z,2.67
2022-11-13T11:45:58.723Z,2.40
2022-11-13T11:48:32.925Z,2.63
2022-11-13T11:51:13.031Z,2.30
2022-11-13T11:53:55.876Z,2.47
2022-11-13T11:56:36.192Z,2.58
2022-11-13T11:59:11.571Z,2.60
2022-11-13T12:02:24.531Z,2.28
2022-11-13T12:05:20.270Z,2.25
2022-11-13T12:07:52.350Z,2.40
2022-11-13T12:10:26.240Z,2.70
2022-11-13T12:13:14.648Z,2.60
2022-11-13T12:16:11.017Z,2.83
2022-11-13T12:19:23.591Z,2.60
2022-11-13T12:21:51.294Z,2.60
2022-11-13T12:24:35.386Z,2.47
2022-11-13T12:27:32.813Z,2.20
2022-11-13T12:30:23.947Z,2.40
2022-11-13T12:33:28.733Z,2.58
2022-11-13T12:35:56.921Z,2.33
2022-11-13T12:38:48.528Z,2.50
2022-11-13T12:41:25.942Z,2.08
2022-11-13T12:44:05.404Z,2.80
2022-11-13T12:46:38.933Z,2.10
2022-11-13T12:49:38.192Z,2.50
2022-11-13T12:52:25.273Z,2.75
2022-11-13T12:55:04.915Z,2.70
2022-11-13T12:57:33.536Z,2.40
2022-11-13T13:00:24.580Z,2.88
2022-11-13T13:03:20.157Z,2.67
2022-11-13T13:06:10.125Z,2.60
2022-11-13T13:08:47.227Z,2.55
2022-11-13T13:11:24.881Z,2.50
2022-11-13T13:14:23.499Z,2.50
2022-11-13T13:16:51.411Z,2.80
2022-11-13T13:19:30.670Z,2.58
2022-11-13T13:21:59.127Z,2.28
2022-11-13T13:24:39.712Z,2.60
2022-11-13T13:27:25.090Z,2.05
2022-11-13T13:29:55.240Z,2.67
2022-11-13T13:32:49.851Z,2.40
2022-11-13T13:35:36.900Z,2.40
2022-11-13T13:38:45.654Z,2.20
2022-11-13T13:41:35.425Z,2.50
2022-11-13T13:44:13.020Z,2.25
2022-11-13T13:46:42.531Z,2.53
2022-11-13T13:49:19.939Z,2.15
2022-11-13T13:51:55.168Z,2.45
2022-11-13T13:54:32.058Z,2.70
2022-11-13T13:57:01.843Z,2.13
2022-11-13T13:59:37.618Z,2.40
2022-11-13T14:02:16.245Z,2.55
2022-11-13T14:04:47.528Z,2.35
2022-11-13T14:07:33.859Z,2.90
2022-11-13T14:10:10.060Z,2.30
2022-11-13T14:12:47.698Z,2.33
2022-11-13T14:15:23.380Z,2.25
2022-11-13T14:17:53.393Z,2.75
2022-11-13T14:20:21.733Z,1.95
2022-11-13T14:22:55.268Z,2.65
2022-11-13T14:25:29.389Z,2.40
2022-11-13T14:27:55.915Z,2.60
2022-11-13T14:30:28.726Z,2.75
2022-11-13T14:32:59.419Z,2.50
2022-11-13T14:35:29.068Z,2.70
2022-11-13T14:37:58.927Z,2.67
2022-11-13T14:40:34.031Z,2.63
2022-11-13T14:43:09.900Z,2.60
2022-11-13T14:45:38.743Z,2.30
2022-11-13T14:48:29.141Z,2.55
2022-11-13T14:51:00.592Z,2.70
2022-11-13T14:53:40.538Z,2.60
2022-11-13T14:56:13.203Z,2.80
2022-11-13T14:58:51.379Z,2.30
2022-11-13T15:01:21.981Z,2.65
2022-11-13T15:03:53.230Z,2.38
2022-11-13T15:06:27.357Z,2.78
2022-11-13T15:08:58.977Z,2.38
2022-11-13T15:11:28.296Z,2.13
2022-11-13T15:14:01.427Z,2.33
2022-11-13T15:16:37.279Z,2.25
2022-11-13T15:19:17.627Z,2.35
2022-11-13T15:22:20.241Z,2.55
2022-11-13T15:24:36.231Z,2.42
2022-11-13T15:27:07.361Z,2.40
2022-11-13T15:29:35.161Z,2.60
2022-11-13T15:32:02.643Z,2.70
2022-11-13T15:34:31.051Z,2.53
2022-11-13T15:36:58.673Z,2.53
2022-11-13T15:39:28.039Z,2.35
2022-11-13T15:41:57.284Z,2.60
2022-11-13T15:44:24.990Z,2.50
2022-11-13T15:46:53.178Z,2.00
2022-11-13T15:49:20.777Z,2.10
2022-11-13T15:51:48.741Z,2.10
2022-11-13T15:54:39.008Z,2.28
2022-11-13T15:57:10.192Z,2.70
2022-11-13T15:59:37.835Z,2.67
2022-11-13T16:02:06.286Z,2.65
2022-11-13T16:04:55.092Z,2.40
2022-11-13T16:07:30.167Z,2.63
2022-11-13T16:09:57.997Z,2.45
2022-11-13T16:12:27.069Z,2.20
2022-11-13T16:14:58.978Z,2.30
2022-11-13T16:17:27.904Z,2.53
2022-11-13T16:19:57.762Z,2.20
2022-11-13T16:22:28.181Z,2.65
2022-11-13T16:24:55.835Z,2.20
2022-11-13T16:27:33.203Z,2.45
2022-11-13T16:30:06.656Z,2.40
2022-11-13T16:32:35.457Z,2.58
2022-11-13T16:35:03.740Z,2.38
2022-11-13T16:37:31.911Z,2.42
2022-11-13T16:39:59.369Z,2.15
2022-11-13T16:42:31.191Z,2.60
2022-11-13T16:45:01.951Z,2.20
2022-11-13T16:47:28.802Z,2.42
2022-11-13T16:49:55.877Z,2.30
2022-11-13T16:52:29.114Z,2.38
2022-11-13T16:55:03.589Z,2.38
2022-11-13T16:57:34.917Z,2.58
2022-11-13T17:00:10.696Z,2.50
2022-11-13T17:02:39.890Z,2.33
2022-11-13T17:05:15.719Z,2.58
2022-11-13T17:07:44.442Z,2.97
2022-11-13T17:10:30.843Z,2.45
2022-11-13T17:13:00.858Z,1.92
2022-11-13T17:15:29.345Z,2.65
2022-11-13T17:17:58.432Z,2.72
2022-11-13T17:20:31.250Z,2.75
2022-11-13T17:22:59.483Z,2.20
2022-11-13T17:25:28.685Z,2.33
2022-11-13T17:27:56.128Z,2.45
2022-11-13T17:30:27.116Z,2.70
2022-11-13T17:32:54.806Z,2.58
2022-11-13T17:35:24.786Z,2.50
2022-11-13T17:37:53.179Z,2.20
2022-11-13T17:40:21.339Z,2.58
2022-11-13T17:42:50.129Z,2.63
2022-11-13T17:45:16.848Z,2.58
2022-11-13T17:47:47.969Z,2.30
2022-11-13T17:50:16.940Z,2.70
2022-11-13T17:52:43.670Z,2.28
2022-11-13T17:55:14.774Z,2.67
2022-11-13T17:57:44.989Z,2.63
2022-11-13T18:00:14.172Z,2.47
2022-11-13T18:02:44.374Z,2.65
2022-11-13T18:05:13.708Z,2.45
2022-11-13T18:07:41.276Z,2.47
2022-11-13T18:10:13.270Z,2.60
2022-11-13T18:12:43.221Z,2.50
2022-11-13T18:15:12.312Z,3.25
2022-11-13T18:17:41.297Z,2.50
2022-11-13T18:20:08.775Z,2.30
2022-11-13T18:22:37.129Z,2.17
2022-11-13T18:25:10.354Z,2.42
2022-11-13T18:27:40.393Z,2.45
2022-11-13T18:30:13.455Z,2.40
2022-11-13T18:32:42.093Z,4.10
2022-11-13T18:35:09.714Z,2.60
2022-11-13T18:37:37.877Z,2.63
2022-11-13T18:40:09.342Z,2.67
2022-11-13T18:42:36.424Z,2.45
2022-11-13T18:45:07.837Z,2.50
2022-11-13T18:47:35.812Z,2.70
2022-11-13T18:50:08.967Z,2.15
2022-11-13T18:52:35.842Z,2.63
2022-11-13T18:55:03.937Z,2.60
2022-11-13T18:57:31.115Z,2.40
2022-11-13T18:59:59.145Z,2.65
2022-11-13T19:02:28.405Z,2.60
2022-11-13T19:04:56.377Z,3.58
2022-11-13T19:07:26.013Z,2.70
2022-11-13T19:09:54.769Z,2.20
2022-11-13T19:12:23.121Z,3.03
2022-11-13T19:14:52.110Z,2.70
2022-11-13T19:17:20.405Z,2.30
2022-11-13T19:19:48.059Z,2.90
2022-11-13T19:22:16.272Z,2.70
2022-11-13T19:24:44.694Z,2.30
2022-11-13T19:27:13.626Z,2.60
2022-11-13T19:29:42.552Z,2.63
2022-11-13T19:32:13.936Z,2.60
2022-11-13T19:34:46.270Z,2.97
2022-11-13T19:37:19.304Z,2.80
2022-11-13T19:39:48.306Z,2.90
2022-11-13T19:42:18.844Z,2.70
2022-11-13T19:44:47.895Z,2.72
2022-11-13T19:47:16.969Z,2.75
2022-11-13T19:49:47.279Z,2.67
2022-11-13T19:52:18.014Z,3.00
2022-11-13T19:54:45.665Z,2.75
2022-11-13T19:57:14.076Z,2.58
2022-11-13T19:59:43.383Z,2.58
2022-11-13T20:02:10.654Z,2.95
2022-11-13T20:04:39.936Z,2.88
2022-11-13T20:07:09.592Z,2.30
2022-11-13T20:09:39.348Z,2.88
2022-11-13T20:12:08.040Z,2.42
2022-11-13T20:14:38.651Z,2.78
2022-11-13T20:17:09.046Z,2.78
2022-11-13T20:19:36.096Z,3.25
2022-11-13T20:22:03.913Z,2.80
2022-11-13T20:24:31.157Z,3.00
2022-11-13T20:27:02.536Z,2.90
2022-11-13T20:29:32.831Z,2.80
2022-11-13T20:32:02.236Z,2.70
2022-11-13T20:34:30.033Z,3.00
2022-11-13T20:37:01.277Z,2.95
2022-11-13T20:39:28.825Z,2.55
2022-11-13T20:41:56.526Z,2.80
2022-11-13T20:44:24.695Z,3.42
2022-11-13T20:46:52.248Z,2.97
2022-11-13T20:49:20.496Z,3.17
2022-11-13T20:51:47.824Z,2.90
2022-11-13T20:54:16.309Z,2.67
2022-11-13T20:56:46.175Z,2.70
2022-11-13T20:59:15.109Z,3.50
2022-11-13T21:01:45.254Z,3.33
2022-11-13T21:04:12.923Z,3.03
2022-11-13T21:06:42.036Z,2.70
2022-11-13T21:09:11.795Z,3.05
2022-11-13T21:11:42.238Z,3.08
2022-11-13T21:14:12.517Z,3.10
2022-11-13T21:16:42.653Z,3.05
2022-11-13T21:19:11.877Z,2.85
2022-11-13T21:21:42.987Z,3.17
2022-11-13T21:24:13.023Z,2.83
2022-11-13T21:26:39.369Z,3.05
2022-11-13T21:29:08.841Z,2.88
2022-11-13T21:31:36.968Z,2.83
2022-11-13T21:34:05.960Z,3.28
2022-11-13T21:36:37.517Z,3.00
2022-11-13T21:39:07.854Z,2.90
2022-11-13T21:41:39.303Z,2.70
2022-11-13T21:44:11.450Z,3.17
2022-11-13T21:46:44.407Z,3.17
2022-11-13T21:49:14.759Z,3.33
2022-11-13T21:51:44.400Z,2.75
2022-11-13T21:54:12.356Z,3.20
2022-11-13T21:56:42.481Z,3.00
2022-11-13T21:59:13.371Z,3.13
2022-11-13T22:01:42.804Z,2.85
2022-11-13T22:04:12.314Z,3.15
2022-11-13T22:06:48.344Z,3.17
2022-11-13T22:09:24.002Z,2.97
2022-11-13T22:11:51.623Z,2.75
2022-11-13T22:14:20.260Z,2.92
2022-11-13T22:16:48.826Z,3.03
2022-11-13T22:19:21.431Z,2.80
2022-11-13T22:21:56.827Z,3.50
2022-11-13T22:24:29.216Z,3.17
2022-11-13T22:26:59.850Z,2.90
2022-11-13T22:29:28.997Z,2.90
2022-11-13T22:31:56.405Z,3.13
2022-11-13T22:34:27.301Z,3.25
2022-11-13T22:36:58.918Z,3.00
2022-11-13T22:39:29.400Z,3.20
2022-11-13T22:41:59.569Z,3.22
2022-11-13T22:44:40.216Z,3.28
2022-11-13T22:47:14.570Z,3.10
2022-11-13T22:49:43.706Z,3.30
2022-11-13T22:52:13.119Z,3.20
2022-11-13T22:54:40.249Z,2.88
2022-11-13T22:57:09.377Z,3.13
2022-11-13T22:59:36.716Z,3.30
2022-11-13T23:02:07.574Z,3.70
2022-11-13T23:04:35.413Z,3.33
2022-11-13T23:07:02.881Z,3.50
2022-11-13T23:09:32.342Z,3.03
2022-11-13T23:12:00.595Z,3.40
2022-11-13T23:14:33.078Z,3.45
2022-11-13T23:17:00.972Z,3.60
2022-11-13T23:19:30.123Z,3.17
2022-11-13T23:21:56.510Z,3.40
2022-11-13T23:24:24.554Z,3.55
2022-11-13T23:26:53.416Z,3.00
2022-11-13T23:29:25.311Z,3.20
2022-11-13T23:31:52.492Z,3.58
2022-11-13T23:34:38.318Z,3.30
2022-11-13T23:37:09.185Z,3.35
2022-11-13T23:39:37.631Z,3.55
2022-11-13T23:42:08.510Z,3.30
2022-11-13T23:44:38.531Z,3.80
2022-11-13T23:47:08.476Z,3.10
2022-11-13T23:49:36.375Z,3.65
2022-11-13T23:52:07.121Z,3.03
2022-11-13T23:54:35.695Z,3.78
2022-11-13T23:57:03.992Z,3.25
2022-11-13T23:59:32.283Z,3.53
